Wawa, Canada
Current Conditions -  °F | °C
As of 10:00 AM on Sunday 21 Dec 2014 (Local Time) from CYXZ Reporting Station
Overcast Overcast  
Wind Chill: 15°   Ceiling: 1500
Heat Index: 25°   Visibility: 15mi
Dew Point: 23°   Wind: 10mph
Humidity: 93%   Direction: 160°SSE
Pressure: 30.13"   Gusts: NA
Location:  48°N, 84.82°W
Report Text: CYXZ 211500Z 16009KT 15SM OVC015 M04/M05 A3013 RMK SC8 SLP222
Loading
Personal Weather Stations






























Interactive Weather Map New forecast layout! Learn more

10-Day Weather Forecast

Advertisements
Track Severe Weather on mobile